createdAt,value
2023-06-11T00:00:11.690Z,46.67
2023-06-11T00:02:43.096Z,46.54
2023-06-11T00:05:12.241Z,46.95
2023-06-11T00:07:41.049Z,46.93
2023-06-11T00:10:11.196Z,47.58
2023-06-11T00:12:39.289Z,47.61
2023-06-11T00:15:08.620Z,47.71
2023-06-11T00:17:36.832Z,47.86
2023-06-11T00:20:11.250Z,47.85
2023-06-11T00:22:41.110Z,48.19
2023-06-11T00:25:13.718Z,48.61
2023-06-11T00:27:41.896Z,48.75
2023-06-11T00:30:10.238Z,48.70
2023-06-11T00:32:38.401Z,48.55
2023-06-11T00:35:10.589Z,49.01
2023-06-11T00:37:39.521Z,49.53
2023-06-11T00:40:10.147Z,49.45
2023-06-11T00:42:42.133Z,49.69
2023-06-11T00:45:11.217Z,49.94
2023-06-11T00:47:40.593Z,50.09
2023-06-11T00:50:10.077Z,49.93
2023-06-11T00:52:38.192Z,49.87
2023-06-11T00:55:07.471Z,49.98
2023-06-11T00:57:36.753Z,49.87
2023-06-11T01:00:12.143Z,49.99
2023-06-11T01:02:44.953Z,49.90
2023-06-11T01:05:19.433Z,50.51
2023-06-11T01:07:51.931Z,50.56
2023-06-11T01:10:21.272Z,50.66
2023-06-11T01:12:49.703Z,50.58
2023-06-11T01:15:19.363Z,50.82
2023-06-11T01:17:55.782Z,50.64
2023-06-11T01:20:36.177Z,50.95
2023-06-11T01:23:19.081Z,50.80
2023-06-11T01:26:09.720Z,51.06
2023-06-11T01:28:40.970Z,51.38
2023-06-11T01:31:15.341Z,51.60
2023-06-11T01:33:43.975Z,51.74
2023-06-11T01:36:12.752Z,51.77
2023-06-11T01:38:43.883Z,51.82
2023-06-11T01:41:13.507Z,51.61
2023-06-11T01:43:43.311Z,52.26
2023-06-11T01:46:11.457Z,52.36
2023-06-11T01:48:39.581Z,52.58
2023-06-11T01:51:08.103Z,52.47
2023-06-11T01:53:36.277Z,52.49
2023-06-11T01:56:04.222Z,53.18
2023-06-11T01:58:32.402Z,52.95
2023-06-11T02:01:03.281Z,53.37
2023-06-11T02:03:31.382Z,52.93
2023-06-11T02:05:59.539Z,53.07
2023-06-11T02:08:27.686Z,53.23
2023-06-11T02:10:56.056Z,53.67
2023-06-11T02:13:24.058Z,53.48
2023-06-11T02:15:52.075Z,53.99
2023-06-11T02:18:21.356Z,54.15
2023-06-11T02:20:49.373Z,53.86
2023-06-11T02:23:17.512Z,54.35
2023-06-11T02:25:45.553Z,54.20
2023-06-11T02:28:13.480Z,54.21
2023-06-11T02:30:41.473Z,54.28
2023-06-11T02:33:12.179Z,54.55
2023-06-11T02:35:41.533Z,54.80
2023-06-11T02:38:09.462Z,55.06
2023-06-11T02:40:37.374Z,55.07
2023-06-11T02:43:07.813Z,54.97
2023-06-11T02:45:36.220Z,54.84
2023-06-11T02:48:04.375Z,55.27
2023-06-11T02:50:32.457Z,55.44
2023-06-11T02:53:01.719Z,55.69
2023-06-11T02:55:29.593Z,56.12
2023-06-11T02:57:57.611Z,56.00
2023-06-11T03:00:26.627Z,56.19
2023-06-11T03:02:55.030Z,55.95
2023-06-11T03:05:23.155Z,55.82
2023-06-11T03:07:51.021Z,55.83
2023-06-11T03:10:20.488Z,55.82
2023-06-11T03:12:48.609Z,55.62
2023-06-11T03:15:16.857Z,55.40
2023-06-11T03:17:44.779Z,55.58
2023-06-11T03:20:14.270Z,55.78
2023-06-11T03:22:42.237Z,55.60
2023-06-11T03:25:10.675Z,56.08
2023-06-11T03:27:40.360Z,55.99
2023-06-11T03:30:09.469Z,55.70
2023-06-11T03:32:37.456Z,55.22
2023-06-11T03:35:06.204Z,55.60
2023-06-11T03:37:34.132Z,56.03
2023-06-11T03:40:02.132Z,55.77
2023-06-11T03:42:30.558Z,56.06
2023-06-11T03:44:59.894Z,55.47
2023-06-11T03:47:27.882Z,55.74
2023-06-11T03:49:55.844Z,55.63
2023-06-11T03:52:23.865Z,55.40
2023-06-11T03:54:52.048Z,55.13
2023-06-11T03:57:21.009Z,55.28
2023-06-11T03:59:49.179Z,55.73
2023-06-11T04:02:18.754Z,56.00
2023-06-11T04:04:46.998Z,55.55
2023-06-11T04:07:14.902Z,56.30
2023-06-11T04:09:43.035Z,56.05
2023-06-11T04:12:11.402Z,56.04
2023-06-11T04:14:39.494Z,55.79
2023-06-11T04:17:07.940Z,56.32
2023-06-11T04:19:37.372Z,56.31
2023-06-11T04:22:05.787Z,56.16
2023-06-11T04:24:33.853Z,55.99
2023-06-11T04:27:01.950Z,55.79
2023-06-11T04:29:30.933Z,56.14
2023-06-11T04:32:04.364Z,55.80
2023-06-11T04:34:35.042Z,55.53
2023-06-11T04:37:06.149Z,55.48
2023-06-11T04:39:34.045Z,55.34
2023-06-11T04:42:03.253Z,55.51
2023-06-11T04:44:33.317Z,55.28
2023-06-11T04:47:02.370Z,55.43
2023-06-11T04:49:30.505Z,55.54
2023-06-11T04:51:59.432Z,55.50
2023-06-11T04:54:29.377Z,56.08
2023-06-11T04:56:57.313Z,56.10
2023-06-11T04:59:25.288Z,56.31
2023-06-11T05:01:55.257Z,55.80
2023-06-11T05:04:23.847Z,55.75
2023-06-11T05:06:51.940Z,55.55
2023-06-11T05:09:19.847Z,55.76
2023-06-11T05:11:49.132Z,56.45
2023-06-11T05:14:17.090Z,56.08
2023-06-11T05:16:45.385Z,55.96
2023-06-11T05:19:13.378Z,55.63
2023-06-11T05:21:41.559Z,55.39
2023-06-11T05:24:18.190Z,55.23
2023-06-11T05:26:46.210Z,54.81
2023-06-11T05:29:18.633Z,54.83
2023-06-11T05:31:46.603Z,54.58
2023-06-11T05:34:14.550Z,54.04
2023-06-11T05:36:43.316Z,53.37
2023-06-11T05:39:11.353Z,53.39
2023-06-11T05:41:39.550Z,53.33
2023-06-11T05:44:07.954Z,53.23
2023-06-11T05:46:37.742Z,52.91
2023-06-11T05:49:06.935Z,52.99
2023-06-11T05:51:36.926Z,52.72
2023-06-11T05:54:05.578Z,52.87
2023-06-11T05:56:33.619Z,52.61
2023-06-11T05:59:01.819Z,52.06
2023-06-11T06:01:29.902Z,51.88
2023-06-11T06:04:00.115Z,51.59
2023-06-11T06:06:31.194Z,51.57
2023-06-11T06:09:00.304Z,51.11
2023-06-11T06:11:28.259Z,50.99
2023-06-11T06:13:56.628Z,50.48
2023-06-11T06:16:27.624Z,49.61
2023-06-11T06:18:56.807Z,50.07
2023-06-11T06:21:26.122Z,49.13
2023-06-11T06:23:54.148Z,45.46
2023-06-11T06:26:24.162Z,41.17
2023-06-11T06:28:53.978Z,38.78
2023-06-11T06:31:24.245Z,36.29
2023-06-11T06:33:55.368Z,35.75
2023-06-11T06:36:23.434Z,34.42
2023-06-11T06:38:52.813Z,33.57
2023-06-11T06:41:21.233Z,32.84
2023-06-11T06:43:50.843Z,30.51
2023-06-11T06:46:20.479Z,30.72
2023-06-11T06:48:48.559Z,30.54
2023-06-11T06:51:17.833Z,30.26
2023-06-11T06:53:46.506Z,29.79
2023-06-11T06:56:16.557Z,28.70
2023-06-11T06:58:44.519Z,29.04
2023-06-11T07:01:12.961Z,29.00
2023-06-11T07:03:45.095Z,28.65
2023-06-11T07:06:13.157Z,27.80
2023-06-11T07:08:42.406Z,27.37
2023-06-11T07:11:10.541Z,26.26
2023-06-11T07:13:40.051Z,26.04
2023-06-11T07:16:08.093Z,25.52
2023-06-11T07:18:36.139Z,25.38
2023-06-11T07:21:04.299Z,25.28
2023-06-11T07:23:32.186Z,25.01
2023-06-11T07:26:01.535Z,24.30
2023-06-11T07:28:29.770Z,24.43
2023-06-11T07:30:59.793Z,23.93
2023-06-11T07:33:27.821Z,23.28
2023-06-11T07:35:55.851Z,22.62
2023-06-11T07:38:24.022Z,23.08
2023-06-11T07:40:52.139Z,23.58
2023-06-11T07:43:20.744Z,23.21
2023-06-11T07:45:48.675Z,22.91
2023-06-11T07:48:17.934Z,22.58
2023-06-11T07:50:45.928Z,22.21
2023-06-11T07:53:14.310Z,22.85
2023-06-11T07:55:42.771Z,23.14
2023-06-11T07:58:11.001Z,23.60
2023-06-11T08:00:39.140Z,23.68
2023-06-11T08:03:07.158Z,23.39
2023-06-11T08:05:36.958Z,22.71
2023-06-11T08:08:05.200Z,22.77
2023-06-11T08:10:33.923Z,22.66
2023-06-11T08:13:02.076Z,22.20
2023-06-11T08:15:30.867Z,22.37
2023-06-11T08:17:59.482Z,22.60
2023-06-11T08:20:28.189Z,22.71
2023-06-11T08:23:00.475Z,22.94
2023-06-11T08:25:28.478Z,22.27
2023-06-11T08:27:56.700Z,21.53
2023-06-11T08:30:24.744Z,22.96
2023-06-11T08:32:54.452Z,23.43
2023-06-11T08:35:23.770Z,22.47
2023-06-11T08:37:51.635Z,21.44
2023-06-11T08:40:22.256Z,22.07
2023-06-11T08:42:50.712Z,21.44
2023-06-11T08:45:18.997Z,22.24
2023-06-11T08:47:52.272Z,22.00
2023-06-11T08:50:22.693Z,21.23
2023-06-11T08:52:53.328Z,21.98
2023-06-11T08:55:23.034Z,21.63
2023-06-11T08:57:52.572Z,21.70
2023-06-11T09:00:22.317Z,22.27
2023-06-11T09:02:51.099Z,21.88
2023-06-11T09:05:19.530Z,22.24
2023-06-11T09:07:51.888Z,21.43
2023-06-11T09:10:20.452Z,21.29
2023-06-11T09:12:49.880Z,20.50
2023-06-11T09:15:19.536Z,21.01
2023-06-11T09:17:48.697Z,20.45
2023-06-11T09:20:18.440Z,21.38
2023-06-11T09:22:47.802Z,21.46
2023-06-11T09:25:18.299Z,21.85
2023-06-11T09:27:48.063Z,22.47
2023-06-11T09:30:19.559Z,21.68
2023-06-11T09:32:50.899Z,21.57
2023-06-11T09:35:22.219Z,21.92
2023-06-11T09:37:54.450Z,21.76
2023-06-11T09:40:24.504Z,22.11
2023-06-11T09:42:53.019Z,21.89
2023-06-11T09:45:24.882Z,21.39
2023-06-11T09:47:53.184Z,22.56
2023-06-11T09:50:23.047Z,23.17
2023-06-11T09:52:53.691Z,23.95
2023-06-11T09:55:27.267Z,24.00
2023-06-11T09:57:55.731Z,23.76
2023-06-11T10:00:25.200Z,23.95
2023-06-11T10:02:53.158Z,23.86
2023-06-11T10:05:21.782Z,24.06
2023-06-11T10:07:52.312Z,24.81
2023-06-11T10:10:23.503Z,25.95
2023-06-11T10:12:52.506Z,26.17
2023-06-11T10:15:22.991Z,25.10
2023-06-11T10:17:54.956Z,24.54
2023-06-11T10:20:28.843Z,24.20
2023-06-11T10:23:08.047Z,23.56
2023-06-11T10:25:37.175Z,23.34
2023-06-11T10:28:05.722Z,23.59
2023-06-11T10:30:34.251Z,23.72
2023-06-11T10:33:04.015Z,23.50
2023-06-11T10:35:34.483Z,22.86
2023-06-11T10:38:07.491Z,23.60
2023-06-11T10:40:37.036Z,23.32
2023-06-11T10:43:15.246Z,23.63
2023-06-11T10:45:44.913Z,23.40
2023-06-11T10:48:15.712Z,22.71
2023-06-11T10:50:43.725Z,23.25
2023-06-11T10:53:14.687Z,23.26
2023-06-11T10:55:48.599Z,23.46
2023-06-11T10:58:24.418Z,22.95
2023-06-11T11:00:54.765Z,23.15
2023-06-11T11:03:25.308Z,23.70
2023-06-11T11:05:53.489Z,23.75
2023-06-11T11:08:25.949Z,23.57
2023-06-11T11:10:59.113Z,22.60
2023-06-11T11:13:27.401Z,23.12
2023-06-11T11:15:55.452Z,23.07
2023-06-11T11:18:24.925Z,22.91
2023-06-11T11:20:57.225Z,22.43
2023-06-11T11:23:27.726Z,22.08
2023-06-11T11:25:56.369Z,22.99
2023-06-11T11:28:24.511Z,23.62
2023-06-11T11:30:54.071Z,23.72
2023-06-11T11:33:22.101Z,23.03
2023-06-11T11:35:54.967Z,23.30
2023-06-11T11:38:23.128Z,23.03
2023-06-11T11:40:56.878Z,23.30
2023-06-11T11:43:25.094Z,23.02
2023-06-11T11:45:53.010Z,23.52
2023-06-11T11:48:21.193Z,23.21
2023-06-11T11:50:51.707Z,24.12
2023-06-11T11:53:21.019Z,24.30
2023-06-11T11:58:21.972Z,24.05
2023-06-11T12:00:51.483Z,23.67
2023-06-11T12:03:21.158Z,24.44
2023-06-11T12:05:59.652Z,24.89
2023-06-11T12:08:30.118Z,24.54
2023-06-11T12:10:58.460Z,24.58
2023-06-11T12:13:26.713Z,24.35
2023-06-11T12:15:54.815Z,23.99
2023-06-11T12:18:22.799Z,24.20
2023-06-11T12:20:50.711Z,23.92
2023-06-11T12:23:18.580Z,24.22
2023-06-11T12:25:48.622Z,24.57
2023-06-11T12:28:17.288Z,24.01
2023-06-11T12:30:45.209Z,23.70
2023-06-11T12:33:13.229Z,23.36
2023-06-11T12:35:41.492Z,23.38
2023-06-11T12:38:09.510Z,24.04
2023-06-11T12:40:38.101Z,23.91
2023-06-11T12:43:07.712Z,23.88
2023-06-11T12:45:38.451Z,24.19
2023-06-11T12:48:07.535Z,24.50
2023-06-11T12:50:35.598Z,24.11
2023-06-11T12:53:05.530Z,24.04
2023-06-11T12:55:33.754Z,23.18
2023-06-11T12:58:01.932Z,23.55
2023-06-11T13:00:31.553Z,24.24
2023-06-11T13:02:59.694Z,24.48
2023-06-11T13:05:28.025Z,24.84
2023-06-11T13:07:56.265Z,24.24
2023-06-11T13:10:26.220Z,24.20
2023-06-11T13:12:56.317Z,24.32
2023-06-11T13:15:24.431Z,24.16
2023-06-11T13:17:53.813Z,23.43
2023-06-11T13:20:22.699Z,23.84
2023-06-11T13:22:51.152Z,23.73
2023-06-11T13:25:19.653Z,23.64
2023-06-11T13:27:48.032Z,23.34
2023-06-11T13:30:16.794Z,23.31
2023-06-11T13:32:45.165Z,22.66
2023-06-11T13:35:14.998Z,22.97
2023-06-11T13:37:45.494Z,22.71
2023-06-11T13:40:14.040Z,22.89
2023-06-11T13:42:42.368Z,22.79
2023-06-11T13:45:11.042Z,23.04
2023-06-11T13:47:39.034Z,23.17
2023-06-11T13:50:08.234Z,22.97
2023-06-11T13:52:37.893Z,22.66
2023-06-11T13:55:06.721Z,22.18
2023-06-11T13:57:34.865Z,22.04
2023-06-11T14:00:03.477Z,22.02
2023-06-11T14:02:31.521Z,22.61
2023-06-11T14:04:59.624Z,22.41
2023-06-11T14:07:27.911Z,22.26
2023-06-11T14:09:57.187Z,22.29
2023-06-11T14:12:25.113Z,22.51
2023-06-11T14:14:54.573Z,24.28
2023-06-11T14:17:22.552Z,25.10
2023-06-11T14:19:50.587Z,25.60
2023-06-11T14:22:18.911Z,25.27
2023-06-11T14:24:47.141Z,24.57
2023-06-11T14:27:16.554Z,24.71
2023-06-11T14:29:44.565Z,25.19
2023-06-11T14:32:15.107Z,24.48
2023-06-11T14:34:43.494Z,25.25
2023-06-11T14:37:12.478Z,26.35
2023-06-11T14:39:42.124Z,25.74
2023-06-11T14:42:11.657Z,24.90
2023-06-11T14:44:41.220Z,26.24
2023-06-11T14:47:09.578Z,27.32
2023-06-11T14:49:37.626Z,27.53
2023-06-11T14:52:09.703Z,28.04
2023-06-11T14:54:37.867Z,27.95
2023-06-11T14:57:15.842Z,28.59
2023-06-11T14:59:45.717Z,28.35
2023-06-11T15:02:15.689Z,28.57
2023-06-11T15:04:44.405Z,28.65
2023-06-11T15:09:46.975Z,29.33
2023-06-11T15:12:15.457Z,29.24
2023-06-11T15:14:44.728Z,29.15
2023-06-11T15:17:13.456Z,29.44
2023-06-11T15:19:44.124Z,29.62
2023-06-11T15:22:12.552Z,29.36
2023-06-11T15:24:40.655Z,29.79
2023-06-11T15:27:09.040Z,29.70
2023-06-11T15:29:37.006Z,29.44
2023-06-11T15:32:07.428Z,29.77
2023-06-11T15:34:35.706Z,29.53
2023-06-11T15:37:03.944Z,29.33
2023-06-11T15:39:31.878Z,29.63
2023-06-11T15:42:02.083Z,29.59
2023-06-11T15:44:30.013Z,29.79
2023-06-11T15:46:58.306Z,29.94
2023-06-11T15:49:27.711Z,30.43
2023-06-11T15:51:55.761Z,30.16
2023-06-11T15:54:23.726Z,29.92
2023-06-11T15:56:51.735Z,30.16
2023-06-11T15:59:19.836Z,30.09
2023-06-11T16:01:47.728Z,29.88
2023-06-11T16:04:15.962Z,30.17
2023-06-11T16:06:45.576Z,30.61
2023-06-11T16:09:13.535Z,30.38
2023-06-11T16:11:41.641Z,30.46
2023-06-11T16:14:09.870Z,30.67
2023-06-11T16:16:38.108Z,30.69
2023-06-11T16:19:06.421Z,30.66
2023-06-11T16:21:34.851Z,30.70
2023-06-11T16:24:04.307Z,30.16
2023-06-11T16:26:32.621Z,30.16
2023-06-11T16:29:01.440Z,30.67
2023-06-11T16:31:29.548Z,30.56
2023-06-11T16:33:59.301Z,30.91
2023-06-11T16:36:29.229Z,30.91
2023-06-11T16:39:06.246Z,30.67
2023-06-11T16:41:40.995Z,30.66
2023-06-11T16:44:09.021Z,31.33
2023-06-11T16:46:36.944Z,30.92
2023-06-11T16:49:05.257Z,31.53
2023-06-11T16:51:33.262Z,31.75
2023-06-11T16:54:01.469Z,31.57
2023-06-11T16:56:31.712Z,32.01
2023-06-11T16:59:01.052Z,32.04
2023-06-11T17:01:29.361Z,31.59
2023-06-11T17:03:58.361Z,31.83
2023-06-11T17:06:28.420Z,32.15
2023-06-11T17:08:56.828Z,32.30
2023-06-11T17:11:24.810Z,32.08
2023-06-11T17:13:53.430Z,32.26
2023-06-11T17:16:22.766Z,32.99
2023-06-11T17:18:50.721Z,34.03
2023-06-11T17:21:21.665Z,34.77
2023-06-11T17:23:49.596Z,35.20
2023-06-11T17:26:17.818Z,35.29
2023-06-11T17:28:45.992Z,35.63
2023-06-11T17:31:14.105Z,35.65
2023-06-11T17:33:43.702Z,36.15
2023-06-11T17:36:11.817Z,36.42
2023-06-11T17:38:39.681Z,35.96
2023-06-11T17:41:07.732Z,36.43
2023-06-11T17:43:35.646Z,36.30
2023-06-11T17:46:06.321Z,35.98
2023-06-11T17:48:34.359Z,36.17
2023-06-11T17:51:03.841Z,36.25
2023-06-11T17:53:31.982Z,36.76
2023-06-11T17:56:01.040Z,37.02
2023-06-11T17:58:29.023Z,37.28
2023-06-11T18:00:56.924Z,37.67
2023-06-11T18:03:24.978Z,38.13
2023-06-11T18:05:52.893Z,37.63
2023-06-11T18:08:22.533Z,38.28
2023-06-11T18:10:50.825Z,38.71
2023-06-11T18:13:18.984Z,38.64
2023-06-11T18:15:47.908Z,38.39
2023-06-11T18:18:20.932Z,38.95
2023-06-11T18:20:51.064Z,39.77
2023-06-11T18:23:19.473Z,40.08
2023-06-11T18:25:49.338Z,40.52
2023-06-11T18:28:17.390Z,40.94
2023-06-11T18:30:45.330Z,41.48
2023-06-11T18:33:13.474Z,42.01
2023-06-11T18:35:41.586Z,42.24
2023-06-11T18:38:09.564Z,42.04
2023-06-11T18:40:37.531Z,41.88
2023-06-11T18:43:06.809Z,42.35
2023-06-11T18:45:34.815Z,42.67
2023-06-11T18:48:02.904Z,43.38
2023-06-11T18:50:31.062Z,43.80
2023-06-11T18:52:59.871Z,44.34
2023-06-11T18:55:30.657Z,44.30
2023-06-11T18:57:59.506Z,44.37
2023-06-11T19:00:28.796Z,44.14
2023-06-11T19:02:57.064Z,43.86
2023-06-11T19:05:27.164Z,44.41
2023-06-11T19:07:55.335Z,44.81
2023-06-11T19:10:24.031Z,45.25
2023-06-11T19:12:54.786Z,45.75
2023-06-11T19:15:25.701Z,45.70
2023-06-11T19:17:55.823Z,45.67
2023-06-11T19:20:27.619Z,45.75
2023-06-11T19:22:59.632Z,45.93
2023-06-11T19:25:27.650Z,46.24
2023-06-11T19:27:55.841Z,46.14
2023-06-11T19:30:24.348Z,46.78
2023-06-11T19:32:53.535Z,46.60
2023-06-11T19:35:23.174Z,46.67
2023-06-11T19:37:51.358Z,46.54
2023-06-11T19:40:19.407Z,46.84
2023-06-11T19:42:48.451Z,47.16
2023-06-11T19:45:19.067Z,47.26
2023-06-11T19:47:47.566Z,47.51
2023-06-11T19:50:16.533Z,47.96
2023-06-11T19:52:51.028Z,48.00
2023-06-11T19:55:25.431Z,47.93
2023-06-11T19:57:53.573Z,47.93
2023-06-11T20:00:22.223Z,48.27
2023-06-11T20:02:50.595Z,48.40
2023-06-11T20:05:19.342Z,48.53
2023-06-11T20:07:48.839Z,48.78
2023-06-11T20:10:16.872Z,48.99
2023-06-11T20:12:45.224Z,49.62
2023-06-11T20:15:13.334Z,49.35
2023-06-11T20:17:41.555Z,49.93
2023-06-11T20:20:10.998Z,49.75
2023-06-11T20:22:39.453Z,49.59
2023-06-11T20:25:09.693Z,49.76
2023-06-11T20:27:37.710Z,50.15
2023-06-11T20:30:06.885Z,50.10
2023-06-11T20:32:35.463Z,50.25
2023-06-11T20:35:03.428Z,50.63
2023-06-11T20:37:31.416Z,51.05
2023-06-11T20:40:00.336Z,50.86
2023-06-11T20:42:30.286Z,51.94
2023-06-11T20:44:59.440Z,51.26
2023-06-11T20:47:29.426Z,51.08
2023-06-11T20:49:57.782Z,51.86
2023-06-11T20:52:27.538Z,51.81
2023-06-11T20:54:55.726Z,52.03
2023-06-11T20:57:23.766Z,52.52
2023-06-11T20:59:53.181Z,52.77
2023-06-11T21:02:21.131Z,53.04
2023-06-11T21:04:49.096Z,53.22
2023-06-11T21:07:17.312Z,53.20
2023-06-11T21:09:45.264Z,52.82
2023-06-11T21:12:18.581Z,53.65
2023-06-11T21:14:46.714Z,54.05
2023-06-11T21:17:16.625Z,54.29
2023-06-11T21:19:44.667Z,54.42
2023-06-11T21:22:12.624Z,54.49
2023-06-11T21:24:41.028Z,54.90
2023-06-11T21:27:09.569Z,55.82
2023-06-11T21:29:37.546Z,56.33
2023-06-11T21:32:06.504Z,56.00
2023-06-11T21:34:37.777Z,56.18
2023-06-11T21:37:06.333Z,56.93
2023-06-11T21:39:34.675Z,57.10
2023-06-11T21:42:02.822Z,57.16
2023-06-11T21:44:30.992Z,57.09
2023-06-11T21:46:59.953Z,56.97
2023-06-11T21:49:28.090Z,57.62
2023-06-11T21:51:57.397Z,58.07
2023-06-11T21:54:25.280Z,58.07
2023-06-11T21:56:53.368Z,58.30
2023-06-11T21:59:21.271Z,58.01
2023-06-11T22:01:49.405Z,58.13
2023-06-11T22:04:19.110Z,58.14
2023-06-11T22:06:48.329Z,57.80
2023-06-11T22:09:17.647Z,57.89
2023-06-11T22:11:46.294Z,57.76
2023-06-11T22:14:14.262Z,57.79
2023-06-11T22:16:45.327Z,57.80
2023-06-11T22:19:14.395Z,57.72
2023-06-11T22:21:50.690Z,57.78
2023-06-11T22:24:21.506Z,58.06
2023-06-11T22:26:50.086Z,57.86
2023-06-11T22:29:18.207Z,58.15
2023-06-11T22:31:46.354Z,57.72
2023-06-11T22:34:14.652Z,57.57
2023-06-11T22:36:42.689Z,57.72
2023-06-11T22:39:11.657Z,57.74
2023-06-11T22:41:41.264Z,57.75
2023-06-11T22:44:09.399Z,57.95
2023-06-11T22:46:37.423Z,57.74
2023-06-11T22:49:05.585Z,57.68
2023-06-11T22:51:34.022Z,57.76
2023-06-11T22:54:01.984Z,57.63
2023-06-11T22:56:30.045Z,57.77
2023-06-11T22:58:59.393Z,57.92
2023-06-11T23:01:28.444Z,57.69
2023-06-11T23:03:57.013Z,57.85
2023-06-11T23:06:25.748Z,57.68
2023-06-11T23:08:55.234Z,57.54
2023-06-11T23:11:23.477Z,57.33
2023-06-11T23:13:51.506Z,57.63
2023-06-11T23:16:21.569Z,58.18
2023-06-11T23:18:54.665Z,58.40
2023-06-11T23:21:22.993Z,57.66
2023-06-11T23:23:51.050Z,57.85
2023-06-11T23:26:22.776Z,57.79
2023-06-11T23:28:51.296Z,57.63
2023-06-11T23:31:21.899Z,57.58
2023-06-11T23:33:50.510Z,57.71
2023-06-11T23:36:19.083Z,57.57
2023-06-11T23:38:48.169Z,57.64
2023-06-11T23:41:16.395Z,57.14
2023-06-11T23:43:44.466Z,57.36
2023-06-11T23:46:12.799Z,57.52
2023-06-11T23:48:43.115Z,57.13
2023-06-11T23:51:11.162Z,57.11
2023-06-11T23:53:39.249Z,56.65
2023-06-11T23:56:07.328Z,56.54
2023-06-11T23:58:35.329Z,56.40
